Terminal Aerodrome Forecast
Issued by NWS

Home | Current Version | Previous Version | Graphics & Text | Print | Product List | Glossary On
Versions: 1 2 3 4 5 6 7 8 9 10 11 12 13 14 15
000
FTUS43 KMPX 222300
TAFRWF
TAF
KRWF 222339Z 2300/2324 09006KT P6SM SCT200
     FM230300 12009KT P6SM BKN080 OVC120
     FM231000 13013G20KT 6SM -SHRA BR OVC060
     FM231400 14020G30KT 6SM -RA BR SCT030 OVC050
     FM231800 14025G37KT P6SM SCT040 BKN070
     FM232200 13020G30KT 4SM -RA BR SCT020 OVC040=

USA.gov is the U.S. government's official web portal to all federal, state and local government web resources and services.